createdAt,value
2022-10-09T00:01:21.746Z,62.74
2022-10-09T00:03:51.983Z,62.43
2022-10-09T00:06:22.143Z,62.67
2022-10-09T00:08:50.466Z,62.81
2022-10-09T00:11:20.864Z,62.94
2022-10-09T00:13:49.240Z,63.04
2022-10-09T00:16:18.647Z,63.00
2022-10-09T00:18:48.486Z,63.06
2022-10-09T00:21:20.189Z,62.61
2022-10-09T00:23:48.667Z,63.21
2022-10-09T00:26:16.618Z,63.27
2022-10-09T00:28:45.062Z,62.85
2022-10-09T00:31:14.034Z,63.40
2022-10-09T00:33:42.128Z,63.57
2022-10-09T00:36:13.990Z,63.40
2022-10-09T00:38:42.019Z,63.61
2022-10-09T00:41:11.763Z,63.47
2022-10-09T00:43:45.424Z,63.42
2022-10-09T00:46:36.237Z,63.72
2022-10-09T00:49:15.722Z,63.50
2022-10-09T00:51:47.433Z,63.57
2022-10-09T00:54:19.249Z,63.71
2022-10-09T00:56:47.349Z,63.61
2022-10-09T00:59:17.705Z,64.06
2022-10-09T01:01:46.516Z,63.86
2022-10-09T01:04:14.600Z,64.02
2022-10-09T01:07:03.531Z,63.65
2022-10-09T01:09:41.181Z,64.00
2022-10-09T01:12:16.413Z,64.18
2022-10-09T01:14:52.814Z,64.12
2022-10-09T01:17:29.620Z,64.34
2022-10-09T01:20:30.663Z,64.20
2022-10-09T01:23:21.457Z,64.67
2022-10-09T01:25:59.641Z,64.32
2022-10-09T01:28:31.410Z,64.75
2022-10-09T01:31:01.258Z,64.51
2022-10-09T01:33:30.674Z,64.30
2022-10-09T01:36:00.673Z,64.65
2022-10-09T01:38:29.966Z,65.13
2022-10-09T01:40:58.768Z,64.55
2022-10-09T01:43:28.422Z,65.02
2022-10-09T01:46:22.029Z,64.93
2022-10-09T01:48:58.566Z,64.99
2022-10-09T01:51:31.649Z,64.83
2022-10-09T01:54:07.642Z,64.78
2022-10-09T01:56:38.773Z,65.21
2022-10-09T01:59:15.809Z,65.32
2022-10-09T02:01:46.619Z,65.26
2022-10-09T02:04:18.109Z,65.16
2022-10-09T02:06:48.586Z,65.25
2022-10-09T02:09:19.063Z,65.19
2022-10-09T02:11:52.546Z,65.26
2022-10-09T02:14:21.944Z,65.52
2022-10-09T02:16:59.343Z,65.53
2022-10-09T02:19:33.308Z,65.41
2022-10-09T02:22:09.624Z,65.61
2022-10-09T02:24:40.037Z,65.46
2022-10-09T02:27:09.094Z,65.56
2022-10-09T02:29:40.193Z,65.89
2022-10-09T02:32:08.209Z,66.05
2022-10-09T02:34:36.231Z,65.83
2022-10-09T02:37:06.718Z,66.00
2022-10-09T02:39:35.212Z,65.86
2022-10-09T02:42:03.477Z,65.78
2022-10-09T02:44:31.796Z,66.14
2022-10-09T02:47:00.988Z,66.17
2022-10-09T02:49:29.149Z,66.24
2022-10-09T02:51:57.086Z,66.38
2022-10-09T02:54:24.971Z,66.30
2022-10-09T02:56:52.811Z,66.28
2022-10-09T02:59:20.829Z,66.33
2022-10-09T03:01:50.842Z,66.43
2022-10-09T03:04:20.089Z,66.23
2022-10-09T03:06:48.267Z,66.30
2022-10-09T03:09:16.171Z,66.54
2022-10-09T03:11:44.475Z,66.21
2022-10-09T03:14:12.415Z,66.58
2022-10-09T03:16:40.317Z,66.61
2022-10-09T03:19:09.309Z,66.80
2022-10-09T03:21:38.494Z,66.73
2022-10-09T03:24:06.519Z,66.81
2022-10-09T03:26:34.785Z,66.71
2022-10-09T03:29:04.315Z,66.76
2022-10-09T03:31:52.203Z,66.84
2022-10-09T03:34:20.626Z,66.92
2022-10-09T03:36:50.263Z,66.99
2022-10-09T03:39:18.275Z,66.81
2022-10-09T03:41:46.305Z,66.98
2022-10-09T03:44:14.325Z,66.93
2022-10-09T03:46:42.399Z,67.11
2022-10-09T03:49:11.147Z,67.03
2022-10-09T03:51:39.050Z,67.27
2022-10-09T03:54:08.802Z,67.39
2022-10-09T03:56:37.814Z,67.19
2022-10-09T03:59:07.588Z,67.38
2022-10-09T04:01:35.539Z,66.95
2022-10-09T04:04:06.352Z,67.24
2022-10-09T04:06:34.423Z,67.45
2022-10-09T04:09:02.459Z,67.15
2022-10-09T04:11:32.120Z,67.21
2022-10-09T04:14:01.774Z,67.15
2022-10-09T04:16:29.848Z,67.34
2022-10-09T04:18:58.158Z,67.41
2022-10-09T04:21:26.139Z,67.39
2022-10-09T04:23:54.279Z,67.36
2022-10-09T04:26:22.316Z,67.61
2022-10-09T04:28:52.062Z,67.42
2022-10-09T04:31:20.043Z,67.75
2022-10-09T04:33:48.144Z,67.64
2022-10-09T04:36:16.817Z,67.81
2022-10-09T04:42:03.244Z,67.79
2022-10-09T04:44:32.763Z,67.88
2022-10-09T04:47:00.965Z,67.73
2022-10-09T04:49:28.915Z,68.03
2022-10-09T04:51:57.008Z,68.07
2022-10-09T04:54:24.867Z,68.14
2022-10-09T04:56:52.821Z,67.97
2022-10-09T04:59:21.111Z,68.07
2022-10-09T05:01:53.353Z,67.98
2022-10-09T05:04:21.487Z,67.96
2022-10-09T05:06:49.481Z,68.26
2022-10-09T05:09:17.557Z,67.96
2022-10-09T05:11:46.234Z,68.04
2022-10-09T05:14:14.357Z,68.25
2022-10-09T05:17:08.407Z,68.48
2022-10-09T05:19:32.430Z,68.22
2022-10-09T05:22:00.777Z,68.05
2022-10-09T05:24:29.126Z,68.22
2022-10-09T05:26:57.091Z,68.21
2022-10-09T05:29:25.302Z,68.64
2022-10-09T05:31:53.377Z,68.30
2022-10-09T05:34:21.665Z,68.66
2022-10-09T05:36:51.160Z,68.52
2022-10-09T05:39:19.114Z,68.47
2022-10-09T05:41:47.077Z,68.56
2022-10-09T05:44:15.076Z,68.79
2022-10-09T05:46:42.966Z,68.92
2022-10-09T05:49:12.141Z,68.60
2022-10-09T05:51:42.854Z,68.66
2022-10-09T05:54:15.450Z,68.95
2022-10-09T05:56:44.565Z,69.17
2022-10-09T05:59:15.157Z,69.22
2022-10-09T06:01:46.842Z,68.89
2022-10-09T06:04:16.456Z,68.90
2022-10-09T06:06:44.947Z,68.90
2022-10-09T06:09:15.188Z,69.22
2022-10-09T06:11:43.849Z,69.44
2022-10-09T06:14:13.482Z,69.35
2022-10-09T06:16:42.967Z,69.27
2022-10-09T06:19:13.222Z,69.45
2022-10-09T06:21:44.971Z,69.58
2022-10-09T06:24:21.369Z,69.58
2022-10-09T06:26:52.644Z,69.73
2022-10-09T06:29:20.726Z,69.42
2022-10-09T06:31:51.962Z,69.91
2022-10-09T06:34:20.075Z,69.87
2022-10-09T06:36:48.126Z,70.03
2022-10-09T06:39:19.604Z,69.96
2022-10-09T06:41:47.610Z,69.99
2022-10-09T06:44:17.263Z,70.02
2022-10-09T06:46:46.504Z,70.17
2022-10-09T06:49:14.431Z,70.27
2022-10-09T06:51:45.371Z,70.44
2022-10-09T06:54:16.616Z,70.54
2022-10-09T06:56:46.260Z,70.61
2022-10-09T06:59:14.565Z,70.85
2022-10-09T07:01:43.085Z,71.17
2022-10-09T07:04:17.727Z,70.74
2022-10-09T07:06:47.966Z,70.92
2022-10-09T07:09:17.079Z,71.34
2022-10-09T07:11:49.611Z,71.56
2022-10-09T07:14:17.913Z,72.12
2022-10-09T07:16:48.356Z,72.04
2022-10-09T07:19:18.222Z,72.40
2022-10-09T07:21:48.763Z,72.79
2022-10-09T07:24:17.626Z,72.57
2022-10-09T07:26:48.334Z,72.54
2022-10-09T07:29:18.546Z,72.80
2022-10-09T07:31:46.591Z,73.11
2022-10-09T07:34:16.172Z,73.16
2022-10-09T07:36:44.536Z,73.34
2022-10-09T07:39:12.566Z,73.12
2022-10-09T07:41:40.575Z,73.35
2022-10-09T07:44:10.472Z,73.36
2022-10-09T07:46:38.859Z,73.73
2022-10-09T07:49:06.901Z,73.51
2022-10-09T07:51:34.969Z,73.55
2022-10-09T07:54:03.345Z,73.54
2022-10-09T07:56:33.131Z,73.56
2022-10-09T07:59:04.713Z,73.43
2022-10-09T08:01:35.563Z,73.44
2022-10-09T08:04:04.836Z,73.50
2022-10-09T08:06:33.520Z,73.57
2022-10-09T08:09:03.299Z,73.83
2022-10-09T08:11:31.917Z,73.60
2022-10-09T08:14:00.224Z,73.71
2022-10-09T08:16:29.276Z,73.47
2022-10-09T08:19:01.688Z,73.81
2022-10-09T08:21:30.522Z,73.66
2022-10-09T08:23:59.973Z,73.81
2022-10-09T08:26:30.784Z,73.56
2022-10-09T08:29:01.150Z,73.87
2022-10-09T08:31:30.351Z,73.81
2022-10-09T08:34:01.297Z,73.62
2022-10-09T08:36:32.936Z,73.59
2022-10-09T08:39:01.242Z,73.60
2022-10-09T08:41:42.007Z,73.62
2022-10-09T08:44:18.360Z,73.44
2022-10-09T08:46:57.348Z,73.20
2022-10-09T08:49:31.534Z,73.27
2022-10-09T08:52:08.790Z,73.29
2022-10-09T08:54:39.000Z,73.13
2022-10-09T08:57:17.318Z,73.12
2022-10-09T08:59:45.488Z,73.09
2022-10-09T09:02:34.630Z,72.96
2022-10-09T09:05:16.102Z,73.12
2022-10-09T09:07:50.972Z,73.00
2022-10-09T09:10:32.007Z,72.97
2022-10-09T09:13:10.732Z,72.79
2022-10-09T09:15:47.927Z,73.02
2022-10-09T09:18:33.223Z,72.73
2022-10-09T09:21:07.004Z,72.65
2022-10-09T09:23:42.098Z,72.87
2022-10-09T09:26:14.978Z,72.34
2022-10-09T09:28:44.653Z,72.14
2022-10-09T09:31:17.807Z,72.21
2022-10-09T09:33:56.521Z,72.12
2022-10-09T09:36:33.225Z,72.01
2022-10-09T09:41:49.381Z,71.64
2022-10-09T09:44:19.161Z,71.47
2022-10-09T09:46:48.802Z,71.31
2022-10-09T09:49:18.048Z,71.22
2022-10-09T09:51:49.695Z,70.70
2022-10-09T09:54:21.564Z,70.78
2022-10-09T09:57:13.761Z,70.34
2022-10-09T09:59:51.773Z,70.07
2022-10-09T10:02:24.425Z,70.31
2022-10-09T10:04:55.533Z,70.03
2022-10-09T10:07:33.268Z,70.01
2022-10-09T10:10:22.487Z,69.59
2022-10-09T10:12:56.305Z,69.54
2022-10-09T10:15:27.622Z,69.42
2022-10-09T10:18:04.360Z,68.75
2022-10-09T10:20:49.897Z,68.40
2022-10-09T10:23:26.270Z,68.18
2022-10-09T10:25:58.011Z,68.41
2022-10-09T10:28:31.933Z,68.24
2022-10-09T10:31:04.128Z,67.69
2022-10-09T10:33:34.746Z,67.72
2022-10-09T10:36:02.758Z,67.19
2022-10-09T10:38:36.686Z,66.80
2022-10-09T10:41:15.267Z,66.23
2022-10-09T10:43:45.859Z,66.35
2022-10-09T10:46:21.944Z,66.26
2022-10-09T10:48:51.804Z,66.12
2022-10-09T10:51:53.997Z,65.93
2022-10-09T10:54:38.949Z,65.04
2022-10-09T10:57:16.259Z,64.86
2022-10-09T10:59:53.742Z,64.45
2022-10-09T11:02:56.905Z,64.23
2022-10-09T11:05:37.990Z,64.36
2022-10-09T11:08:36.856Z,64.13
2022-10-09T11:11:13.628Z,63.44
2022-10-09T11:13:50.187Z,63.62
2022-10-09T11:16:42.707Z,63.07
2022-10-09T11:19:43.070Z,62.99
2022-10-09T11:22:24.790Z,62.67
2022-10-09T11:25:15.089Z,62.49
2022-10-09T11:28:06.508Z,62.26
2022-10-09T11:30:40.244Z,61.88
2022-10-09T11:33:21.038Z,61.56
2022-10-09T11:35:55.158Z,61.49
2022-10-09T11:38:27.775Z,61.25
2022-10-09T11:40:55.993Z,61.15
2022-10-09T11:43:45.233Z,60.72
2022-10-09T11:46:23.232Z,60.72
2022-10-09T11:49:00.830Z,60.35
2022-10-09T11:51:35.437Z,60.28
2022-10-09T11:54:04.892Z,60.11
2022-10-09T11:56:33.886Z,59.64
2022-10-09T11:59:05.559Z,59.70
2022-10-09T12:01:36.127Z,59.40
2022-10-09T12:04:07.949Z,59.33
2022-10-09T12:06:47.180Z,59.02
2022-10-09T12:09:23.155Z,58.82
2022-10-09T12:12:01.500Z,58.56
2022-10-09T12:14:32.219Z,58.23
2022-10-09T12:17:00.582Z,58.25
2022-10-09T12:19:32.565Z,58.02
2022-10-09T12:22:05.520Z,58.07
2022-10-09T12:24:40.655Z,57.91
2022-10-09T12:27:09.986Z,57.75
2022-10-09T12:29:46.741Z,57.78
2022-10-09T12:32:24.586Z,57.70
2022-10-09T12:34:54.265Z,57.58
2022-10-09T12:37:23.972Z,57.48
2022-10-09T12:39:51.932Z,57.12
2022-10-09T12:42:24.440Z,57.03
2022-10-09T12:45:07.871Z,56.86
2022-10-09T12:47:36.374Z,56.62
2022-10-09T12:50:20.445Z,56.69
2022-10-09T12:52:50.729Z,56.73
2022-10-09T12:55:26.766Z,56.51
2022-10-09T12:57:57.834Z,56.65
2022-10-09T13:00:27.298Z,56.49
2022-10-09T13:02:55.633Z,56.17
2022-10-09T13:05:23.860Z,56.05
2022-10-09T13:07:54.169Z,55.94
2022-10-09T13:10:24.378Z,55.86
2022-10-09T13:12:54.500Z,55.54
2022-10-09T13:15:35.665Z,55.45
2022-10-09T13:18:14.890Z,55.05
2022-10-09T13:20:42.799Z,54.94
2022-10-09T13:23:30.450Z,54.73
2022-10-09T13:26:03.138Z,54.58
2022-10-09T13:28:31.789Z,54.36
2022-10-09T13:31:08.885Z,54.33
2022-10-09T13:33:36.817Z,54.15
2022-10-09T13:36:05.030Z,54.28
2022-10-09T13:38:35.157Z,54.21
2022-10-09T13:41:03.697Z,54.27
2022-10-09T13:43:35.070Z,54.10
2022-10-09T13:46:03.272Z,54.07
2022-10-09T13:48:33.882Z,53.96
2022-10-09T13:51:04.798Z,53.85
2022-10-09T13:53:36.016Z,53.80
2022-10-09T13:56:08.609Z,53.77
2022-10-09T13:58:36.722Z,53.93
2022-10-09T14:01:10.733Z,53.83
2022-10-09T14:03:43.046Z,53.68
2022-10-09T14:06:11.150Z,53.86
2022-10-09T14:08:39.178Z,53.66
2022-10-09T14:11:07.561Z,53.60
2022-10-09T14:13:37.984Z,53.57
2022-10-09T14:16:15.783Z,53.46
2022-10-09T14:18:45.423Z,53.38
2022-10-09T14:21:15.790Z,53.26
2022-10-09T14:23:44.095Z,53.20
2022-10-09T14:26:12.326Z,52.98
2022-10-09T14:28:40.553Z,52.92
2022-10-09T14:31:09.263Z,52.85
2022-10-09T14:33:37.429Z,52.57
2022-10-09T14:36:08.218Z,52.39
2022-10-09T14:38:39.424Z,52.43
2022-10-09T14:41:09.062Z,52.10
2022-10-09T14:43:37.458Z,52.16
2022-10-09T14:46:07.789Z,52.12
2022-10-09T14:48:36.353Z,51.75
2022-10-09T14:51:07.786Z,51.80
2022-10-09T14:53:35.750Z,51.80
2022-10-09T14:56:05.326Z,51.48
2022-10-09T14:58:34.995Z,51.41
2022-10-09T15:01:03.390Z,51.37
2022-10-09T15:03:31.828Z,51.17
2022-10-09T15:06:00.508Z,51.43
2022-10-09T15:08:31.119Z,51.42
2022-10-09T15:10:59.005Z,51.14
2022-10-09T15:13:27.198Z,51.11
2022-10-09T15:16:00.234Z,51.31
2022-10-09T15:18:28.696Z,51.04
2022-10-09T15:20:57.723Z,51.07
2022-10-09T15:23:25.606Z,50.96
2022-10-09T15:25:57.432Z,50.95
2022-10-09T15:28:26.008Z,50.93
2022-10-09T15:30:56.309Z,50.91
2022-10-09T15:33:25.222Z,50.62
2022-10-09T15:35:54.019Z,50.88
2022-10-09T15:38:23.658Z,50.82
2022-10-09T15:40:52.854Z,50.68
2022-10-09T15:43:28.103Z,50.75
2022-10-09T15:46:02.916Z,50.78
2022-10-09T15:48:31.072Z,50.46
2022-10-09T15:51:00.455Z,50.22
2022-10-09T15:53:28.677Z,50.41
2022-10-09T15:56:00.096Z,50.39
2022-10-09T15:58:29.892Z,50.26
2022-10-09T16:01:03.153Z,50.32
2022-10-09T16:03:35.325Z,50.47
2022-10-09T16:06:07.557Z,49.94
2022-10-09T16:08:36.069Z,50.43
2022-10-09T16:11:06.747Z,50.38
2022-10-09T16:13:39.580Z,50.18
2022-10-09T16:16:10.768Z,50.29
2022-10-09T16:18:39.364Z,50.05
2022-10-09T16:21:08.657Z,50.05
2022-10-09T16:23:36.764Z,49.96
2022-10-09T16:26:05.773Z,49.74
2022-10-09T16:28:34.979Z,50.34
2022-10-09T16:31:04.822Z,50.02
2022-10-09T16:33:33.442Z,50.26
2022-10-09T16:36:09.124Z,50.16
2022-10-09T16:38:37.976Z,50.33
2022-10-09T16:41:09.526Z,49.80
2022-10-09T16:43:38.493Z,49.98
2022-10-09T16:46:12.634Z,50.01
2022-10-09T16:48:43.762Z,49.54
2022-10-09T16:51:13.783Z,49.97
2022-10-09T16:53:42.454Z,49.64
2022-10-09T16:56:12.649Z,50.14
2022-10-09T16:58:40.997Z,49.96
2022-10-09T17:01:10.511Z,49.58
2022-10-09T17:03:42.210Z,50.20
2022-10-09T17:06:14.815Z,50.19
2022-10-09T17:08:45.977Z,49.64
2022-10-09T17:11:17.678Z,50.15
2022-10-09T17:13:45.988Z,50.15
2022-10-09T17:16:18.516Z,50.04
2022-10-09T17:18:48.337Z,50.06
2022-10-09T17:21:18.068Z,49.76
2022-10-09T17:23:46.914Z,49.73
2022-10-09T17:26:18.611Z,49.73
2022-10-09T17:28:47.637Z,50.13
2022-10-09T17:31:19.091Z,50.29
2022-10-09T17:33:50.157Z,49.73
2022-10-09T17:36:20.344Z,50.35
2022-10-09T17:38:49.639Z,50.35
2022-10-09T17:41:19.761Z,49.99
2022-10-09T17:43:47.775Z,50.18
2022-10-09T17:46:19.305Z,50.07
2022-10-09T17:48:57.207Z,50.24
2022-10-09T17:51:26.889Z,50.39
2022-10-09T17:56:29.806Z,50.04
2022-10-09T17:59:06.166Z,49.85
2022-10-09T18:01:34.754Z,50.36
2022-10-09T18:04:04.456Z,49.77
2022-10-09T18:06:33.839Z,49.83
2022-10-09T18:09:02.554Z,49.78
2022-10-09T18:11:31.181Z,49.72
2022-10-09T18:13:59.795Z,50.01
2022-10-09T18:16:36.999Z,49.80
2022-10-09T18:19:12.695Z,49.91
2022-10-09T18:21:48.640Z,50.19
2022-10-09T18:24:19.111Z,49.84
2022-10-09T18:26:47.132Z,49.91
2022-10-09T18:29:15.176Z,49.96
2022-10-09T18:31:43.505Z,49.70
2022-10-09T18:34:12.882Z,50.34
2022-10-09T18:36:40.741Z,50.48
2022-10-09T18:39:14.533Z,50.18
2022-10-09T18:41:58.354Z,50.31
2022-10-09T18:44:35.749Z,50.27
2022-10-09T18:47:07.707Z,49.82
2022-10-09T18:49:38.160Z,49.87
2022-10-09T18:52:06.119Z,49.99
2022-10-09T18:54:34.077Z,50.10
2022-10-09T18:57:03.397Z,50.15
2022-10-09T18:59:31.876Z,49.90
2022-10-09T19:01:59.991Z,49.87
2022-10-09T19:04:28.511Z,50.17
2022-10-09T19:07:04.725Z,50.01
2022-10-09T19:09:38.797Z,50.20
2022-10-09T19:12:07.735Z,50.60
2022-10-09T19:14:36.369Z,50.50
2022-10-09T19:17:04.612Z,50.08
2022-10-09T19:19:32.496Z,50.18
2022-10-09T19:22:01.970Z,50.02
2022-10-09T19:24:34.231Z,50.97
2022-10-09T19:27:03.091Z,50.69
2022-10-09T19:29:30.924Z,50.25
2022-10-09T19:31:58.926Z,50.78
2022-10-09T19:34:27.050Z,50.73
2022-10-09T19:36:55.106Z,50.53
2022-10-09T19:39:24.965Z,50.22
2022-10-09T19:41:53.068Z,50.77
2022-10-09T19:44:21.643Z,50.48
2022-10-09T19:46:49.588Z,51.04
2022-10-09T19:49:17.626Z,51.14
2022-10-09T19:51:45.834Z,50.65
2022-10-09T19:54:16.398Z,50.70
2022-10-09T19:56:45.684Z,50.60
2022-10-09T19:59:13.907Z,50.86
2022-10-09T20:01:43.307Z,50.58
2022-10-09T20:04:12.170Z,50.46
2022-10-09T20:06:41.155Z,50.78
2022-10-09T20:09:10.588Z,51.00
2022-10-09T20:11:39.334Z,51.46
2022-10-09T20:14:09.812Z,51.07
2022-10-09T20:16:38.001Z,50.71
2022-10-09T20:19:05.957Z,51.27
2022-10-09T20:21:34.541Z,51.27
2022-10-09T20:24:02.875Z,51.18
2022-10-09T20:26:33.104Z,51.74
2022-10-09T20:29:01.303Z,51.21
2022-10-09T20:31:31.741Z,51.42
2022-10-09T20:33:59.671Z,51.32
2022-10-09T20:36:30.003Z,51.59
2022-10-09T20:39:02.209Z,52.08
2022-10-09T20:41:34.824Z,51.68
2022-10-09T20:44:04.174Z,51.27
2022-10-09T20:46:35.619Z,51.66
2022-10-09T20:49:04.957Z,51.92
2022-10-09T20:51:35.262Z,52.05
2022-10-09T20:54:03.654Z,51.96
2022-10-09T20:56:35.171Z,51.45
2022-10-09T20:59:05.434Z,51.78
2022-10-09T21:04:36.468Z,52.16
2022-10-09T21:07:04.699Z,51.68
2022-10-09T21:09:33.484Z,52.08
2022-10-09T21:12:02.525Z,51.98
2022-10-09T21:14:31.011Z,51.76
2022-10-09T21:17:00.588Z,52.48
2022-10-09T21:19:31.551Z,52.27
2022-10-09T21:21:59.622Z,52.05
2022-10-09T21:24:27.802Z,52.60
2022-10-09T21:26:55.708Z,52.49
2022-10-09T21:29:23.828Z,52.94
2022-10-09T21:31:55.704Z,52.94
2022-10-09T21:34:25.237Z,52.93
2022-10-09T21:37:19.980Z,52.86
2022-10-09T21:39:43.752Z,52.49
2022-10-09T21:42:12.220Z,52.74
2022-10-09T21:44:40.225Z,52.55
2022-10-09T21:47:10.637Z,52.40
2022-10-09T21:49:41.899Z,52.95
2022-10-09T21:52:10.785Z,52.76
2022-10-09T21:54:39.017Z,52.67
2022-10-09T21:57:06.945Z,52.95
2022-10-09T21:59:35.008Z,52.97
2022-10-09T22:02:03.412Z,52.55
2022-10-09T22:04:31.310Z,52.83
2022-10-09T22:07:00.953Z,53.05
2022-10-09T22:09:28.872Z,53.21
2022-10-09T22:11:57.272Z,53.17
2022-10-09T22:14:25.538Z,53.25
2022-10-09T22:16:53.396Z,53.19
2022-10-09T22:19:21.367Z,53.35
2022-10-09T22:21:50.570Z,53.33
2022-10-09T22:24:19.865Z,53.33
2022-10-09T22:26:47.698Z,53.47
2022-10-09T22:29:15.638Z,53.43
2022-10-09T22:31:43.519Z,53.32
2022-10-09T22:34:11.483Z,53.83
2022-10-09T22:36:39.518Z,53.97
2022-10-09T22:39:08.305Z,53.81
2022-10-09T22:41:40.104Z,53.91
2022-10-09T22:44:09.305Z,53.64
2022-10-09T22:46:39.838Z,53.96
2022-10-09T22:49:09.608Z,53.67
2022-10-09T22:51:37.546Z,53.71
2022-10-09T22:54:06.659Z,54.06
2022-10-09T22:56:38.323Z,54.13
2022-10-09T22:59:07.505Z,53.94
2022-10-09T23:01:38.643Z,54.05
2022-10-09T23:04:08.480Z,54.25
2022-10-09T23:06:36.527Z,54.20
2022-10-09T23:09:06.953Z,54.54
2022-10-09T23:11:35.623Z,54.74
2022-10-09T23:14:05.494Z,54.26
2022-10-09T23:16:33.771Z,54.50
2022-10-09T23:19:06.757Z,54.69
2022-10-09T23:21:36.255Z,54.53
2022-10-09T23:24:05.238Z,54.57
2022-10-09T23:26:34.446Z,54.80
2022-10-09T23:29:05.578Z,55.13
2022-10-09T23:31:34.131Z,54.84
2022-10-09T23:34:02.329Z,54.74
2022-10-09T23:36:30.513Z,55.05
2022-10-09T23:38:59.515Z,55.04
2022-10-09T23:41:29.304Z,55.39
2022-10-09T23:43:57.560Z,55.35
2022-10-09T23:46:29.672Z,55.04
2022-10-09T23:48:58.206Z,55.17
2022-10-09T23:51:27.908Z,55.43
2022-10-09T23:53:56.240Z,54.92
2022-10-09T23:56:25.697Z,55.47
2022-10-09T23:58:55.046Z,55.96
